sensor_id;sensor_type;location;lat;lon;timestamp;P1;durP1;ratioP1;P2;durP2;ratioP2
76865;SDS011;66647;52.124;5.416;2024-02-26T00:01:44;5.47;;;0.60;;
76865;SDS011;66647;52.124;5.416;2024-02-26T00:04:12;4.63;;;0.50;;
76865;SDS011;66647;52.124;5.416;2024-02-26T00:06:53;5.45;;;1.63;;
76865;SDS011;66647;52.124;5.416;2024-02-26T00:09:21;2.63;;;0.75;;
76865;SDS011;66647;52.124;5.416;2024-02-26T00:11:49;1.75;;;0.50;;
76865;SDS011;66647;52.124;5.416;2024-02-26T00:17:13;3.50;;;0.82;;
76865;SDS011;66647;52.124;5.416;2024-02-26T00:19:40;3.25;;;0.70;;
76865;SDS011;66647;52.124;5.416;2024-02-26T00:22:07;4.57;;;0.90;;
76865;SDS011;66647;52.124;5.416;2024-02-26T00:31:36;3.92;;;0.90;;
76865;SDS011;66647;52.124;5.416;2024-02-26T00:37:06;5.40;;;1.88;;
76865;SDS011;66647;52.124;5.416;2024-02-26T00:42:12;3.90;;;1.85;;
76865;SDS011;66647;52.124;5.416;2024-02-26T00:45:17;5.60;;;2.67;;
76865;SDS011;66647;52.124;5.416;2024-02-26T00:50:45;5.72;;;1.88;;
76865;SDS011;66647;52.124;5.416;2024-02-26T00:53:18;5.50;;;1.17;;
76865;SDS011;66647;52.124;5.416;2024-02-26T00:56:11;4.13;;;2.08;;
76865;SDS011;66647;52.124;5.416;2024-02-26T01:05:14;3.65;;;0.93;;
76865;SDS011;66647;52.124;5.416;2024-02-26T01:07:43;4.43;;;1.20;;
76865;SDS011;66647;52.124;5.416;2024-02-26T01:10:10;4.65;;;1.30;;
76865;SDS011;66647;52.124;5.416;2024-02-26T01:20:50;3.78;;;1.13;;
76865;SDS011;66647;52.124;5.416;2024-02-26T01:30:44;5.88;;;2.67;;
76865;SDS011;66647;52.124;5.416;2024-02-26T01:33:28;5.93;;;1.15;;
76865;SDS011;66647;52.124;5.416;2024-02-26T01:37:13;4.63;;;1.65;;
76865;SDS011;66647;52.124;5.416;2024-02-26T01:43:06;4.95;;;1.55;;
76865;SDS011;66647;52.124;5.416;2024-02-26T01:48:26;4.40;;;1.30;;
76865;SDS011;66647;52.124;5.416;2024-02-26T01:55:18;4.03;;;1.13;;
76865;SDS011;66647;52.124;5.416;2024-02-26T01:57:57;3.22;;;0.88;;
76865;SDS011;66647;52.124;5.416;2024-02-26T02:04:17;5.22;;;1.42;;
76865;SDS011;66647;52.124;5.416;2024-02-26T02:06:47;5.57;;;1.50;;
76865;SDS011;66647;52.124;5.416;2024-02-26T02:09:57;4.43;;;2.53;;
76865;SDS011;66647;52.124;5.416;2024-02-26T02:12:25;5.40;;;2.35;;
76865;SDS011;66647;52.124;5.416;2024-02-26T02:15:06;5.82;;;1.38;;
76865;SDS011;66647;52.124;5.416;2024-02-26T02:17:33;4.63;;;2.00;;
76865;SDS011;66647;52.124;5.416;2024-02-26T02:20:00;4.63;;;2.40;;
76865;SDS011;66647;52.124;5.416;2024-02-26T02:25:44;5.95;;;2.70;;
76865;SDS011;66647;52.124;5.416;2024-02-26T02:31:38;3.08;;;0.65;;
76865;SDS011;66647;52.124;5.416;2024-02-26T02:34:06;7.10;;;1.20;;
76865;SDS011;66647;52.124;5.416;2024-02-26T02:43:04;4.40;;;1.08;;
76865;SDS011;66647;52.124;5.416;2024-02-26T02:48:26;5.15;;;2.25;;
76865;SDS011;66647;52.124;5.416;2024-02-26T02:52:24;3.50;;;1.00;;
76865;SDS011;66647;52.124;5.416;2024-02-26T02:57:46;7.05;;;1.35;;
76865;SDS011;66647;52.124;5.416;2024-02-26T03:00:14;12.85;;;1.20;;
76865;SDS011;66647;52.124;5.416;2024-02-26T03:02:47;6.18;;;1.60;;
76865;SDS011;66647;52.124;5.416;2024-02-26T03:05:18;6.80;;;1.23;;
76865;SDS011;66647;52.124;5.416;2024-02-26T03:07:51;4.70;;;2.58;;
76865;SDS011;66647;52.124;5.416;2024-02-26T03:10:31;5.85;;;2.53;;
76865;SDS011;66647;52.124;5.416;2024-02-26T03:13:15;4.50;;;2.10;;
76865;SDS011;66647;52.124;5.416;2024-02-26T03:21:54;4.72;;;2.08;;
76865;SDS011;66647;52.124;5.416;2024-02-26T03:27:15;4.95;;;1.85;;
76865;SDS011;66647;52.124;5.416;2024-02-26T03:29:51;5.40;;;1.75;;
76865;SDS011;66647;52.124;5.416;2024-02-26T03:32:57;5.25;;;1.90;;
76865;SDS011;66647;52.124;5.416;2024-02-26T03:35:27;5.03;;;1.67;;
76865;SDS011;66647;52.124;5.416;2024-02-26T03:37:54;6.07;;;1.73;;
76865;SDS011;66647;52.124;5.416;2024-02-26T03:43:14;6.25;;;2.05;;
76865;SDS011;66647;52.124;5.416;2024-02-26T03:46:20;5.07;;;1.33;;
76865;SDS011;66647;52.124;5.416;2024-02-26T03:48:47;7.60;;;2.88;;
76865;SDS011;66647;52.124;5.416;2024-02-26T03:51:18;6.63;;;2.28;;
76865;SDS011;66647;52.124;5.416;2024-02-26T03:53:47;4.20;;;1.77;;
76865;SDS011;66647;52.124;5.416;2024-02-26T04:00:18;6.97;;;2.83;;
76865;SDS011;66647;52.124;5.416;2024-02-26T04:06:15;6.18;;;1.95;;
76865;SDS011;66647;52.124;5.416;2024-02-26T04:08:47;8.52;;;2.70;;
76865;SDS011;66647;52.124;5.416;2024-02-26T04:11:28;8.63;;;2.03;;
76865;SDS011;66647;52.124;5.416;2024-02-26T04:15:19;5.35;;;1.63;;
76865;SDS011;66647;52.124;5.416;2024-02-26T04:21:19;6.00;;;2.60;;
76865;SDS011;66647;52.124;5.416;2024-02-26T04:23:46;5.75;;;1.98;;
76865;SDS011;66647;52.124;5.416;2024-02-26T04:26:47;5.68;;;2.22;;
76865;SDS011;66647;52.124;5.416;2024-02-26T04:39:49;6.30;;;1.75;;
76865;SDS011;66647;52.124;5.416;2024-02-26T04:42:24;6.70;;;2.28;;
76865;SDS011;66647;52.124;5.416;2024-02-26T04:44:50;6.88;;;1.88;;
76865;SDS011;66647;52.124;5.416;2024-02-26T04:47:17;8.48;;;2.83;;
76865;SDS011;66647;52.124;5.416;2024-02-26T04:49:44;6.57;;;2.45;;
76865;SDS011;66647;52.124;5.416;2024-02-26T04:55:31;4.72;;;2.22;;
76865;SDS011;66647;52.124;5.416;2024-02-26T04:58:18;5.68;;;2.58;;
76865;SDS011;66647;52.124;5.416;2024-02-26T05:11:30;6.70;;;2.90;;
76865;SDS011;66647;52.124;5.416;2024-02-26T05:19:53;5.65;;;1.85;;
76865;SDS011;66647;52.124;5.416;2024-02-26T05:23:32;8.13;;;2.28;;
76865;SDS011;66647;52.124;5.416;2024-02-26T05:26:53;5.97;;;2.20;;
76865;SDS011;66647;52.124;5.416;2024-02-26T05:36:19;5.95;;;3.38;;
76865;SDS011;66647;52.124;5.416;2024-02-26T05:39:27;4.47;;;1.67;;
76865;SDS011;66647;52.124;5.416;2024-02-26T05:42:38;9.05;;;2.17;;
76865;SDS011;66647;52.124;5.416;2024-02-26T05:45:19;8.35;;;2.95;;
76865;SDS011;66647;52.124;5.416;2024-02-26T05:47:46;7.22;;;2.40;;
76865;SDS011;66647;52.124;5.416;2024-02-26T05:55:26;9.07;;;2.78;;
76865;SDS011;66647;52.124;5.416;2024-02-26T06:02:20;9.75;;;3.92;;
76865;SDS011;66647;52.124;5.416;2024-02-26T06:12:02;7.15;;;2.38;;
76865;SDS011;66647;52.124;5.416;2024-02-26T06:17:22;8.82;;;3.63;;
76865;SDS011;66647;52.124;5.416;2024-02-26T06:22:47;8.60;;;2.50;;
76865;SDS011;66647;52.124;5.416;2024-02-26T06:26:37;7.68;;;2.53;;
76865;SDS011;66647;52.124;5.416;2024-02-26T06:36:02;9.02;;;2.75;;
76865;SDS011;66647;52.124;5.416;2024-02-26T06:41:15;9.68;;;3.42;;
76865;SDS011;66647;52.124;5.416;2024-02-26T06:43:41;10.70;;;4.50;;
76865;SDS011;66647;52.124;5.416;2024-02-26T06:46:20;10.40;;;3.05;;
76865;SDS011;66647;52.124;5.416;2024-02-26T06:48:49;7.90;;;2.75;;
76865;SDS011;66647;52.124;5.416;2024-02-26T06:51:33;10.77;;;3.13;;
76865;SDS011;66647;52.124;5.416;2024-02-26T07:00:50;11.88;;;3.90;;
76865;SDS011;66647;52.124;5.416;2024-02-26T07:03:17;13.35;;;5.10;;
76865;SDS011;66647;52.124;5.416;2024-02-26T07:06:17;11.60;;;4.90;;
76865;SDS011;66647;52.124;5.416;2024-02-26T07:09:19;14.20;;;5.22;;
76865;SDS011;66647;52.124;5.416;2024-02-26T07:28:28;15.48;;;6.13;;
76865;SDS011;66647;52.124;5.416;2024-02-26T07:37:23;11.52;;;4.32;;
76865;SDS011;66647;52.124;5.416;2024-02-26T07:41:20;13.52;;;4.18;;
76865;SDS011;66647;52.124;5.416;2024-02-26T07:43:58;14.50;;;6.18;;
76865;SDS011;66647;52.124;5.416;2024-02-26T07:46:53;13.27;;;4.57;;
76865;SDS011;66647;52.124;5.416;2024-02-26T07:55:23;11.45;;;4.05;;
76865;SDS011;66647;52.124;5.416;2024-02-26T07:57:51;14.93;;;4.82;;
76865;SDS011;66647;52.124;5.416;2024-02-26T08:00:18;14.38;;;5.30;;
76865;SDS011;66647;52.124;5.416;2024-02-26T08:05:51;15.88;;;6.82;;
76865;SDS011;66647;52.124;5.416;2024-02-26T08:08:18;13.48;;;5.15;;
76865;SDS011;66647;52.124;5.416;2024-02-26T08:10:48;13.18;;;4.80;;
76865;SDS011;66647;52.124;5.416;2024-02-26T08:13:15;14.20;;;6.22;;
76865;SDS011;66647;52.124;5.416;2024-02-26T08:15:42;18.23;;;7.28;;
76865;SDS011;66647;52.124;5.416;2024-02-26T08:24:26;11.05;;;4.30;;
76865;SDS011;66647;52.124;5.416;2024-02-26T08:26:54;13.20;;;6.43;;
76865;SDS011;66647;52.124;5.416;2024-02-26T08:29:20;11.38;;;3.67;;
76865;SDS011;66647;52.124;5.416;2024-02-26T08:32:24;15.93;;;4.43;;
76865;SDS011;66647;52.124;5.416;2024-02-26T08:35:18;10.00;;;3.45;;
76865;SDS011;66647;52.124;5.416;2024-02-26T08:37:52;7.65;;;1.98;;
76865;SDS011;66647;52.124;5.416;2024-02-26T08:40:25;10.85;;;5.28;;
76865;SDS011;66647;52.124;5.416;2024-02-26T08:42:55;8.48;;;3.10;;
76865;SDS011;66647;52.124;5.416;2024-02-26T08:48:26;9.32;;;4.30;;
76865;SDS011;66647;52.124;5.416;2024-02-26T08:50:53;9.50;;;3.85;;
76865;SDS011;66647;52.124;5.416;2024-02-26T08:53:20;8.38;;;2.58;;
76865;SDS011;66647;52.124;5.416;2024-02-26T08:55:57;9.38;;;4.03;;
76865;SDS011;66647;52.124;5.416;2024-02-26T08:58:27;10.02;;;3.35;;
76865;SDS011;66647;52.124;5.416;2024-02-26T09:00:54;8.45;;;4.00;;
76865;SDS011;66647;52.124;5.416;2024-02-26T09:03:21;12.13;;;3.17;;
76865;SDS011;66647;52.124;5.416;2024-02-26T09:05:48;7.47;;;3.50;;
76865;SDS011;66647;52.124;5.416;2024-02-26T09:08:21;8.23;;;3.20;;
76865;SDS011;66647;52.124;5.416;2024-02-26T09:10:49;7.28;;;2.50;;
76865;SDS011;66647;52.124;5.416;2024-02-26T09:13:23;10.10;;;4.15;;
76865;SDS011;66647;52.124;5.416;2024-02-26T09:15:50;9.57;;;4.25;;
76865;SDS011;66647;52.124;5.416;2024-02-26T09:18:16;8.27;;;4.53;;
76865;SDS011;66647;52.124;5.416;2024-02-26T09:20:49;8.02;;;3.05;;
76865;SDS011;66647;52.124;5.416;2024-02-26T09:23:17;9.15;;;2.63;;
76865;SDS011;66647;52.124;5.416;2024-02-26T09:25:44;8.82;;;3.28;;
76865;SDS011;66647;52.124;5.416;2024-02-26T09:28:10;6.95;;;2.75;;
76865;SDS011;66647;52.124;5.416;2024-02-26T09:30:43;8.32;;;3.05;;
76865;SDS011;66647;52.124;5.416;2024-02-26T09:33:17;7.22;;;3.35;;
76865;SDS011;66647;52.124;5.416;2024-02-26T09:35:44;5.95;;;1.90;;
76865;SDS011;66647;52.124;5.416;2024-02-26T09:38:11;7.32;;;2.30;;
76865;SDS011;66647;52.124;5.416;2024-02-26T09:40:39;6.47;;;2.25;;
76865;SDS011;66647;52.124;5.416;2024-02-26T09:43:07;6.53;;;2.92;;
76865;SDS011;66647;52.124;5.416;2024-02-26T09:45:40;5.93;;;2.05;;
76865;SDS011;66647;52.124;5.416;2024-02-26T09:48:08;6.57;;;2.20;;
76865;SDS011;66647;52.124;5.416;2024-02-26T09:50:43;6.75;;;2.38;;
76865;SDS011;66647;52.124;5.416;2024-02-26T09:53:11;6.20;;;1.77;;
76865;SDS011;66647;52.124;5.416;2024-02-26T09:55:38;7.05;;;1.60;;
76865;SDS011;66647;52.124;5.416;2024-02-26T09:58:05;7.32;;;2.55;;
76865;SDS011;66647;52.124;5.416;2024-02-26T10:00:34;6.35;;;3.15;;
76865;SDS011;66647;52.124;5.416;2024-02-26T10:03:05;5.85;;;1.50;;
76865;SDS011;66647;52.124;5.416;2024-02-26T10:05:36;4.45;;;1.20;;
76865;SDS011;66647;52.124;5.416;2024-02-26T10:08:06;8.13;;;2.83;;
76865;SDS011;66647;52.124;5.416;2024-02-26T10:10:36;5.45;;;1.48;;
76865;SDS011;66647;52.124;5.416;2024-02-26T10:13:06;5.63;;;2.50;;
76865;SDS011;66647;52.124;5.416;2024-02-26T10:15:36;7.38;;;1.63;;
76865;SDS011;66647;52.124;5.416;2024-02-26T10:18:22;15.27;;;1.95;;
76865;SDS011;66647;52.124;5.416;2024-02-26T10:21:00;5.63;;;1.30;;
76865;SDS011;66647;52.124;5.416;2024-02-26T10:23:30;5.45;;;2.28;;
76865;SDS011;66647;52.124;5.416;2024-02-26T10:28:33;5.03;;;2.70;;
76865;SDS011;66647;52.124;5.416;2024-02-26T10:31:06;5.95;;;2.63;;
76865;SDS011;66647;52.124;5.416;2024-02-26T10:33:38;5.30;;;2.17;;
76865;SDS011;66647;52.124;5.416;2024-02-26T10:36:10;6.55;;;2.30;;
76865;SDS011;66647;52.124;5.416;2024-02-26T10:38:38;5.07;;;1.42;;
76865;SDS011;66647;52.124;5.416;2024-02-26T10:41:09;6.28;;;2.72;;
76865;SDS011;66647;52.124;5.416;2024-02-26T10:43:47;6.47;;;2.08;;
76865;SDS011;66647;52.124;5.416;2024-02-26T10:46:14;5.38;;;1.17;;
76865;SDS011;66647;52.124;5.416;2024-02-26T10:48:49;4.88;;;1.63;;
76865;SDS011;66647;52.124;5.416;2024-02-26T10:51:21;5.07;;;1.45;;
76865;SDS011;66647;52.124;5.416;2024-02-26T10:53:57;7.40;;;1.35;;
76865;SDS011;66647;52.124;5.416;2024-02-26T10:56:30;4.63;;;1.20;;
76865;SDS011;66647;52.124;5.416;2024-02-26T10:59:00;3.58;;;1.13;;
76865;SDS011;66647;52.124;5.416;2024-02-26T11:01:28;5.40;;;2.25;;
76865;SDS011;66647;52.124;5.416;2024-02-26T11:03:59;5.85;;;2.30;;
76865;SDS011;66647;52.124;5.416;2024-02-26T11:06:28;4.25;;;0.93;;
76865;SDS011;66647;52.124;5.416;2024-02-26T11:08:56;6.22;;;1.85;;
76865;SDS011;66647;52.124;5.416;2024-02-26T11:11:25;6.15;;;2.05;;
76865;SDS011;66647;52.124;5.416;2024-02-26T11:13:56;6.47;;;1.85;;
76865;SDS011;66647;52.124;5.416;2024-02-26T11:16:24;4.50;;;1.27;;
76865;SDS011;66647;52.124;5.416;2024-02-26T11:18:53;6.07;;;1.65;;
76865;SDS011;66647;52.124;5.416;2024-02-26T11:21:27;5.22;;;1.05;;
76865;SDS011;66647;52.124;5.416;2024-02-26T11:23:57;5.50;;;2.05;;
76865;SDS011;66647;52.124;5.416;2024-02-26T11:26:24;6.82;;;3.05;;
76865;SDS011;66647;52.124;5.416;2024-02-26T11:28:53;4.80;;;1.20;;
76865;SDS011;66647;52.124;5.416;2024-02-26T11:31:20;5.22;;;1.48;;
76865;SDS011;66647;52.124;5.416;2024-02-26T11:33:56;6.18;;;2.75;;
76865;SDS011;66647;52.124;5.416;2024-02-26T11:36:24;6.22;;;2.53;;
76865;SDS011;66647;52.124;5.416;2024-02-26T11:38:50;5.13;;;2.33;;
76865;SDS011;66647;52.124;5.416;2024-02-26T11:41:18;5.88;;;2.47;;
76865;SDS011;66647;52.124;5.416;2024-02-26T11:46:30;5.20;;;2.45;;
76865;SDS011;66647;52.124;5.416;2024-02-26T11:50:34;5.78;;;1.50;;
76865;SDS011;66647;52.124;5.416;2024-02-26T11:54:40;6.78;;;2.03;;
76865;SDS011;66647;52.124;5.416;2024-02-26T12:02:58;3.75;;;0.80;;
76865;SDS011;66647;52.124;5.416;2024-02-26T12:09:00;5.10;;;1.40;;
76865;SDS011;66647;52.124;5.416;2024-02-26T12:11:30;7.78;;;3.17;;
76865;SDS011;66647;52.124;5.416;2024-02-26T12:16:55;5.53;;;2.35;;
76865;SDS011;66647;52.124;5.416;2024-02-26T12:19:23;3.83;;;1.80;;
76865;SDS011;66647;52.124;5.416;2024-02-26T12:22:06;6.95;;;1.85;;
76865;SDS011;66647;52.124;5.416;2024-02-26T12:24:59;5.30;;;2.20;;
76865;SDS011;66647;52.124;5.416;2024-02-26T12:27:39;5.30;;;2.95;;
76865;SDS011;66647;52.124;5.416;2024-02-26T12:30:12;6.03;;;1.83;;
76865;SDS011;66647;52.124;5.416;2024-02-26T12:33:07;4.75;;;1.65;;
76865;SDS011;66647;52.124;5.416;2024-02-26T12:35:53;5.50;;;1.88;;
76865;SDS011;66647;52.124;5.416;2024-02-26T12:45:10;5.40;;;1.05;;
76865;SDS011;66647;52.124;5.416;2024-02-26T12:47:49;4.60;;;1.67;;
76865;SDS011;66647;52.124;5.416;2024-02-26T12:50:16;4.30;;;1.23;;
76865;SDS011;66647;52.124;5.416;2024-02-26T12:52:47;4.35;;;1.15;;
76865;SDS011;66647;52.124;5.416;2024-02-26T12:55:24;6.63;;;1.60;;
76865;SDS011;66647;52.124;5.416;2024-02-26T12:57:52;5.28;;;1.50;;
76865;SDS011;66647;52.124;5.416;2024-02-26T13:00:31;4.90;;;2.08;;
76865;SDS011;66647;52.124;5.416;2024-02-26T13:02:59;3.65;;;1.10;;
76865;SDS011;66647;52.124;5.416;2024-02-26T13:05:36;5.40;;;2.47;;
76865;SDS011;66647;52.124;5.416;2024-02-26T13:08:17;5.20;;;1.45;;
76865;SDS011;66647;52.124;5.416;2024-02-26T13:11:03;5.20;;;2.25;;
76865;SDS011;66647;52.124;5.416;2024-02-26T13:13:47;5.07;;;1.65;;
76865;SDS011;66647;52.124;5.416;2024-02-26T13:16:34;6.30;;;2.67;;
76865;SDS011;66647;52.124;5.416;2024-02-26T13:19:20;4.30;;;1.05;;
76865;SDS011;66647;52.124;5.416;2024-02-26T13:21:49;5.63;;;1.70;;
76865;SDS011;66647;52.124;5.416;2024-02-26T13:24:22;6.60;;;1.77;;
76865;SDS011;66647;52.124;5.416;2024-02-26T13:26:54;5.32;;;1.60;;
76865;SDS011;66647;52.124;5.416;2024-02-26T13:33:12;8.18;;;3.35;;
76865;SDS011;66647;52.124;5.416;2024-02-26T13:36:00;4.28;;;2.00;;
76865;SDS011;66647;52.124;5.416;2024-02-26T13:38:28;5.70;;;2.47;;
76865;SDS011;66647;52.124;5.416;2024-02-26T13:41:09;4.32;;;0.90;;
76865;SDS011;66647;52.124;5.416;2024-02-26T13:43:39;4.93;;;2.28;;
76865;SDS011;66647;52.124;5.416;2024-02-26T13:46:23;5.65;;;1.55;;
76865;SDS011;66647;52.124;5.416;2024-02-26T13:48:56;7.10;;;2.65;;
76865;SDS011;66647;52.124;5.416;2024-02-26T13:51:33;5.68;;;1.85;;
76865;SDS011;66647;52.124;5.416;2024-02-26T13:54:01;4.50;;;2.03;;
76865;SDS011;66647;52.124;5.416;2024-02-26T13:57:07;6.50;;;2.20;;
76865;SDS011;66647;52.124;5.416;2024-02-26T14:02:37;6.93;;;1.85;;
76865;SDS011;66647;52.124;5.416;2024-02-26T14:05:03;5.13;;;2.40;;
76865;SDS011;66647;52.124;5.416;2024-02-26T14:07:36;5.10;;;0.98;;
76865;SDS011;66647;52.124;5.416;2024-02-26T14:10:16;7.15;;;3.33;;
76865;SDS011;66647;52.124;5.416;2024-02-26T14:19:29;6.68;;;1.85;;
76865;SDS011;66647;52.124;5.416;2024-02-26T14:21:58;10.27;;;2.13;;
76865;SDS011;66647;52.124;5.416;2024-02-26T14:24:25;4.85;;;1.23;;
76865;SDS011;66647;52.124;5.416;2024-02-26T14:26:55;4.47;;;0.90;;
76865;SDS011;66647;52.124;5.416;2024-02-26T14:29:21;3.92;;;1.17;;
76865;SDS011;66647;52.124;5.416;2024-02-26T14:31:48;4.43;;;1.25;;
76865;SDS011;66647;52.124;5.416;2024-02-26T14:34:15;6.15;;;1.95;;
76865;SDS011;66647;52.124;5.416;2024-02-26T14:39:58;3.25;;;0.52;;
76865;SDS011;66647;52.124;5.416;2024-02-26T14:42:25;3.40;;;0.75;;
76865;SDS011;66647;52.124;5.416;2024-02-26T14:45:01;3.90;;;0.90;;
76865;SDS011;66647;52.124;5.416;2024-02-26T14:47:57;4.85;;;1.80;;
76865;SDS011;66647;52.124;5.416;2024-02-26T14:50:24;4.28;;;0.90;;
76865;SDS011;66647;52.124;5.416;2024-02-26T14:52:50;4.45;;;0.82;;
76865;SDS011;66647;52.124;5.416;2024-02-26T14:55:56;3.53;;;1.45;;
76865;SDS011;66647;52.124;5.416;2024-02-26T14:58:23;3.63;;;1.13;;
76865;SDS011;66647;52.124;5.416;2024-02-26T15:00:52;3.35;;;1.48;;
76865;SDS011;66647;52.124;5.416;2024-02-26T15:03:25;4.95;;;1.05;;
76865;SDS011;66647;52.124;5.416;2024-02-26T15:08:24;3.30;;;1.55;;
76865;SDS011;66647;52.124;5.416;2024-02-26T15:11:22;3.78;;;1.40;;
76865;SDS011;66647;52.124;5.416;2024-02-26T15:13:50;2.65;;;0.50;;
76865;SDS011;66647;52.124;5.416;2024-02-26T15:16:20;5.70;;;0.73;;
76865;SDS011;66647;52.124;5.416;2024-02-26T15:19:26;3.03;;;0.93;;
76865;SDS011;66647;52.124;5.416;2024-02-26T15:22:17;3.47;;;1.35;;
76865;SDS011;66647;52.124;5.416;2024-02-26T15:30:55;2.28;;;0.40;;
76865;SDS011;66647;52.124;5.416;2024-02-26T15:34:00;4.72;;;0.40;;
76865;SDS011;66647;52.124;5.416;2024-02-26T15:36:29;4.35;;;0.77;;
76865;SDS011;66647;52.124;5.416;2024-02-26T15:38:56;2.67;;;0.60;;
76865;SDS011;66647;52.124;5.416;2024-02-26T15:41:23;4.60;;;1.88;;
76865;SDS011;66647;52.124;5.416;2024-02-26T15:43:54;3.03;;;0.50;;
76865;SDS011;66647;52.124;5.416;2024-02-26T15:46:23;5.22;;;0.73;;
76865;SDS011;66647;52.124;5.416;2024-02-26T15:48:51;5.10;;;1.23;;
76865;SDS011;66647;52.124;5.416;2024-02-26T16:09:24;3.35;;;0.80;;
76865;SDS011;66647;52.124;5.416;2024-02-26T16:14:58;5.30;;;1.25;;
76865;SDS011;66647;52.124;5.416;2024-02-26T16:25:55;4.57;;;0.80;;
76865;SDS011;66647;52.124;5.416;2024-02-26T16:28:27;5.53;;;1.90;;
76865;SDS011;66647;52.124;5.416;2024-02-26T16:30:54;7.57;;;2.00;;
76865;SDS011;66647;52.124;5.416;2024-02-26T16:33:46;5.18;;;1.30;;
76865;SDS011;66647;52.124;5.416;2024-02-26T16:36:17;5.72;;;1.35;;
76865;SDS011;66647;52.124;5.416;2024-02-26T16:38:44;3.90;;;1.00;;
76865;SDS011;66647;52.124;5.416;2024-02-26T16:41:13;3.97;;;0.98;;
76865;SDS011;66647;52.124;5.416;2024-02-26T16:43:41;5.55;;;2.35;;
76865;SDS011;66647;52.124;5.416;2024-02-26T16:46:28;5.78;;;2.05;;
76865;SDS011;66647;52.124;5.416;2024-02-26T16:49:08;6.95;;;1.33;;
76865;SDS011;66647;52.124;5.416;2024-02-26T16:51:54;6.80;;;1.42;;
76865;SDS011;66647;52.124;5.416;2024-02-26T17:07:15;4.90;;;1.85;;
76865;SDS011;66647;52.124;5.416;2024-02-26T17:13:20;4.97;;;2.78;;
76865;SDS011;66647;52.124;5.416;2024-02-26T17:16:13;4.43;;;1.00;;
76865;SDS011;66647;52.124;5.416;2024-02-26T17:18:42;3.95;;;1.02;;
76865;SDS011;66647;52.124;5.416;2024-02-26T17:21:09;5.88;;;1.63;;
76865;SDS011;66647;52.124;5.416;2024-02-26T17:24:43;4.53;;;0.90;;
76865;SDS011;66647;52.124;5.416;2024-02-26T17:27:12;5.70;;;1.80;;
76865;SDS011;66647;52.124;5.416;2024-02-26T17:29:41;9.65;;;3.05;;
76865;SDS011;66647;52.124;5.416;2024-02-26T17:32:08;5.95;;;1.50;;
76865;SDS011;66647;52.124;5.416;2024-02-26T17:34:39;4.22;;;1.45;;
76865;SDS011;66647;52.124;5.416;2024-02-26T17:37:09;6.70;;;1.75;;
76865;SDS011;66647;52.124;5.416;2024-02-26T17:44:23;5.63;;;2.38;;
76865;SDS011;66647;52.124;5.416;2024-02-26T18:03:55;4.72;;;1.83;;
76865;SDS011;66647;52.124;5.416;2024-02-26T18:07:07;6.03;;;1.60;;
76865;SDS011;66647;52.124;5.416;2024-02-26T18:10:16;5.18;;;2.75;;
76865;SDS011;66647;52.124;5.416;2024-02-26T18:15:44;6.32;;;1.92;;
76865;SDS011;66647;52.124;5.416;2024-02-26T18:22:28;5.75;;;1.40;;
76865;SDS011;66647;52.124;5.416;2024-02-26T18:32:24;4.45;;;2.03;;
76865;SDS011;66647;52.124;5.416;2024-02-26T18:35:15;5.30;;;1.95;;
76865;SDS011;66647;52.124;5.416;2024-02-26T19:41:31;6.75;;;0.95;;
76865;SDS011;66647;52.124;5.416;2024-02-26T19:47:22;6.53;;;1.58;;
76865;SDS011;66647;52.124;5.416;2024-02-26T20:28:59;8.23;;;2.25;;
76865;SDS011;66647;52.124;5.416;2024-02-26T20:35:07;7.10;;;1.52;;
76865;SDS011;66647;52.124;5.416;2024-02-26T20:49:36;6.45;;;1.98;;
76865;SDS011;66647;52.124;5.416;2024-02-26T20:52:07;5.72;;;2.63;;
76865;SDS011;66647;52.124;5.416;2024-02-26T20:54:34;9.43;;;3.78;;
76865;SDS011;66647;52.124;5.416;2024-02-26T21:08:25;8.18;;;2.85;;
76865;SDS011;66647;52.124;5.416;2024-02-26T21:17:36;6.60;;;1.63;;
76865;SDS011;66647;52.124;5.416;2024-02-26T21:27:35;8.13;;;2.20;;
76865;SDS011;66647;52.124;5.416;2024-02-26T21:30:02;7.72;;;3.10;;
76865;SDS011;66647;52.124;5.416;2024-02-26T21:32:32;6.18;;;1.60;;
76865;SDS011;66647;52.124;5.416;2024-02-26T21:35:01;7.40;;;3.53;;
76865;SDS011;66647;52.124;5.416;2024-02-26T21:37:38;7.45;;;2.17;;
76865;SDS011;66647;52.124;5.416;2024-02-26T21:40:05;8.52;;;2.92;;
76865;SDS011;66647;52.124;5.416;2024-02-26T21:42:36;6.57;;;2.13;;
76865;SDS011;66647;52.124;5.416;2024-02-26T21:45:03;8.88;;;1.95;;
76865;SDS011;66647;52.124;5.416;2024-02-26T21:47:33;6.00;;;1.73;;
76865;SDS011;66647;52.124;5.416;2024-02-26T21:49:59;8.10;;;2.58;;
76865;SDS011;66647;52.124;5.416;2024-02-26T21:52:26;9.55;;;3.03;;
76865;SDS011;66647;52.124;5.416;2024-02-26T21:54:53;6.35;;;2.08;;
76865;SDS011;66647;52.124;5.416;2024-02-26T21:57:21;9.63;;;3.28;;
76865;SDS011;66647;52.124;5.416;2024-02-26T21:59:57;9.52;;;2.20;;
76865;SDS011;66647;52.124;5.416;2024-02-26T22:02:24;6.80;;;2.33;;
76865;SDS011;66647;52.124;5.416;2024-02-26T22:04:55;7.60;;;2.55;;
76865;SDS011;66647;52.124;5.416;2024-02-26T22:07:26;7.85;;;3.20;;
76865;SDS011;66647;52.124;5.416;2024-02-26T22:09:53;7.20;;;2.00;;
76865;SDS011;66647;52.124;5.416;2024-02-26T22:12:20;8.98;;;3.60;;
76865;SDS011;66647;52.124;5.416;2024-02-26T22:20:59;7.50;;;1.90;;
76865;SDS011;66647;52.124;5.416;2024-02-26T22:23:30;7.85;;;2.25;;
76865;SDS011;66647;52.124;5.416;2024-02-26T22:25:56;7.63;;;2.58;;
76865;SDS011;66647;52.124;5.416;2024-02-26T22:28:23;7.30;;;2.30;;
76865;SDS011;66647;52.124;5.416;2024-02-26T22:30:54;9.05;;;2.92;;
76865;SDS011;66647;52.124;5.416;2024-02-26T22:35:57;6.90;;;1.88;;
76865;SDS011;66647;52.124;5.416;2024-02-26T22:38:28;6.75;;;2.15;;
76865;SDS011;66647;52.124;5.416;2024-02-26T22:40:58;5.30;;;1.25;;
76865;SDS011;66647;52.124;5.416;2024-02-26T22:43:26;5.97;;;2.13;;
76865;SDS011;66647;52.124;5.416;2024-02-26T22:45:53;5.43;;;1.40;;
76865;SDS011;66647;52.124;5.416;2024-02-26T22:51:37;9.63;;;1.63;;
76865;SDS011;66647;52.124;5.416;2024-02-26T22:54:04;6.78;;;1.25;;
76865;SDS011;66647;52.124;5.416;2024-02-26T22:56:33;9.57;;;2.97;;
76865;SDS011;66647;52.124;5.416;2024-02-26T22:59:00;8.63;;;2.05;;
76865;SDS011;66647;52.124;5.416;2024-02-26T23:01:34;5.35;;;1.70;;
76865;SDS011;66647;52.124;5.416;2024-02-26T23:04:05;8.57;;;2.85;;
76865;SDS011;66647;52.124;5.416;2024-02-26T23:09:27;5.43;;;1.38;;
76865;SDS011;66647;52.124;5.416;2024-02-26T23:11:56;5.72;;;1.88;;
76865;SDS011;66647;52.124;5.416;2024-02-26T23:15:05;5.05;;;1.58;;
76865;SDS011;66647;52.124;5.416;2024-02-26T23:17:33;4.35;;;1.30;;
76865;SDS011;66647;52.124;5.416;2024-02-26T23:20:00;6.50;;;2.05;;
76865;SDS011;66647;52.124;5.416;2024-02-26T23:22:27;6.85;;;2.72;;
76865;SDS011;66647;52.124;5.416;2024-02-26T23:24:53;8.90;;;1.83;;
76865;SDS011;66647;52.124;5.416;2024-02-26T23:27:21;5.53;;;1.50;;
76865;SDS011;66647;52.124;5.416;2024-02-26T23:29:48;8.82;;;2.47;;
76865;SDS011;66647;52.124;5.416;2024-02-26T23:35:09;6.05;;;1.92;;
76865;SDS011;66647;52.124;5.416;2024-02-26T23:37:41;6.63;;;1.90;;
76865;SDS011;66647;52.124;5.416;2024-02-26T23:40:08;5.80;;;1.73;;
76865;SDS011;66647;52.124;5.416;2024-02-26T23:42:34;8.55;;;2.10;;
76865;SDS011;66647;52.124;5.416;2024-02-26T23:45:28;6.43;;;1.55;;
76865;SDS011;66647;52.124;5.416;2024-02-26T23:47:55;4.60;;;1.42;;
76865;SDS011;66647;52.124;5.416;2024-02-26T23:50:22;5.97;;;2.33;;
76865;SDS011;66647;52.124;5.416;2024-02-26T23:52:51;6.38;;;1.67;;
76865;SDS011;66647;52.124;5.416;2024-02-26T23:55:18;6.93;;;2.17;;
76865;SDS011;66647;52.124;5.416;2024-02-26T23:57:54;7.00;;;1.42;;
